sensor_id;sensor_type;location;lat;lon;timestamp;P1;durP1;ratioP1;P2;durP2;ratioP2
69244;SDS011;56357;52.304;4.870;2023-06-10T00:00:40;7.22;;;4.03;;
69244;SDS011;56357;52.304;4.870;2023-06-10T00:03:07;7.95;;;3.95;;
69244;SDS011;56357;52.304;4.870;2023-06-10T00:05:34;8.05;;;3.67;;
69244;SDS011;56357;52.304;4.870;2023-06-10T00:08:03;8.02;;;3.78;;
69244;SDS011;56357;52.304;4.870;2023-06-10T00:10:35;8.63;;;4.17;;
69244;SDS011;56357;52.304;4.870;2023-06-10T00:13:04;9.77;;;4.43;;
69244;SDS011;56357;52.304;4.870;2023-06-10T00:15:33;8.48;;;3.92;;
69244;SDS011;56357;52.304;4.870;2023-06-10T00:18:00;7.97;;;3.95;;
69244;SDS011;56357;52.304;4.870;2023-06-10T00:20:28;7.93;;;3.85;;
69244;SDS011;56357;52.304;4.870;2023-06-10T00:22:55;10.00;;;4.20;;
69244;SDS011;56357;52.304;4.870;2023-06-10T00:25:22;7.07;;;3.53;;
69244;SDS011;56357;52.304;4.870;2023-06-10T00:27:48;8.25;;;3.97;;
69244;SDS011;56357;52.304;4.870;2023-06-10T00:30:15;7.97;;;3.63;;
69244;SDS011;56357;52.304;4.870;2023-06-10T00:32:41;8.88;;;3.70;;
69244;SDS011;56357;52.304;4.870;2023-06-10T00:35:08;8.17;;;3.43;;
69244;SDS011;56357;52.304;4.870;2023-06-10T00:37:35;8.15;;;3.53;;
69244;SDS011;56357;52.304;4.870;2023-06-10T00:40:02;6.85;;;3.10;;
69244;SDS011;56357;52.304;4.870;2023-06-10T00:42:29;7.28;;;3.47;;
69244;SDS011;56357;52.304;4.870;2023-06-10T00:44:56;9.90;;;4.00;;
69244;SDS011;56357;52.304;4.870;2023-06-10T00:47:22;7.50;;;3.50;;
69244;SDS011;56357;52.304;4.870;2023-06-10T00:49:49;6.32;;;3.40;;
69244;SDS011;56357;52.304;4.870;2023-06-10T00:52:16;7.47;;;3.25;;
69244;SDS011;56357;52.304;4.870;2023-06-10T00:54:44;6.93;;;3.00;;
69244;SDS011;56357;52.304;4.870;2023-06-10T00:57:11;8.15;;;3.33;;
69244;SDS011;56357;52.304;4.870;2023-06-10T00:59:39;6.57;;;3.00;;
69244;SDS011;56357;52.304;4.870;2023-06-10T01:02:07;7.97;;;3.70;;
69244;SDS011;56357;52.304;4.870;2023-06-10T01:04:34;7.00;;;3.45;;
69244;SDS011;56357;52.304;4.870;2023-06-10T01:07:20;8.23;;;3.40;;
69244;SDS011;56357;52.304;4.870;2023-06-10T01:10:15;6.82;;;3.10;;
69244;SDS011;56357;52.304;4.870;2023-06-10T01:12:44;6.80;;;3.57;;
69244;SDS011;56357;52.304;4.870;2023-06-10T01:15:17;6.07;;;3.10;;
69244;SDS011;56357;52.304;4.870;2023-06-10T01:18:00;6.18;;;2.90;;
69244;SDS011;56357;52.304;4.870;2023-06-10T01:20:27;8.50;;;3.30;;
69244;SDS011;56357;52.304;4.870;2023-06-10T01:22:55;7.53;;;3.40;;
69244;SDS011;56357;52.304;4.870;2023-06-10T01:25:22;7.07;;;2.83;;
69244;SDS011;56357;52.304;4.870;2023-06-10T01:27:58;6.97;;;3.47;;
69244;SDS011;56357;52.304;4.870;2023-06-10T01:30:37;7.60;;;3.45;;
69244;SDS011;56357;52.304;4.870;2023-06-10T01:33:12;7.85;;;3.10;;
69244;SDS011;56357;52.304;4.870;2023-06-10T01:35:43;7.80;;;3.03;;
69244;SDS011;56357;52.304;4.870;2023-06-10T01:38:10;7.17;;;2.90;;
69244;SDS011;56357;52.304;4.870;2023-06-10T01:40:38;7.07;;;2.95;;
69244;SDS011;56357;52.304;4.870;2023-06-10T01:43:05;6.78;;;3.03;;
69244;SDS011;56357;52.304;4.870;2023-06-10T01:45:32;7.13;;;3.17;;
69244;SDS011;56357;52.304;4.870;2023-06-10T01:47:58;7.40;;;3.60;;
69244;SDS011;56357;52.304;4.870;2023-06-10T01:50:24;6.20;;;3.00;;
69244;SDS011;56357;52.304;4.870;2023-06-10T01:52:51;7.53;;;3.28;;
69244;SDS011;56357;52.304;4.870;2023-06-10T01:55:17;6.68;;;3.28;;
69244;SDS011;56357;52.304;4.870;2023-06-10T01:57:43;6.13;;;2.60;;
69244;SDS011;56357;52.304;4.870;2023-06-10T02:00:10;6.50;;;2.83;;
69244;SDS011;56357;52.304;4.870;2023-06-10T02:02:39;6.30;;;3.30;;
69244;SDS011;56357;52.304;4.870;2023-06-10T02:05:05;7.10;;;3.10;;
69244;SDS011;56357;52.304;4.870;2023-06-10T02:07:32;6.53;;;3.22;;
69244;SDS011;56357;52.304;4.870;2023-06-10T02:09:58;6.25;;;3.20;;
69244;SDS011;56357;52.304;4.870;2023-06-10T02:12:25;7.53;;;3.35;;
69244;SDS011;56357;52.304;4.870;2023-06-10T02:14:51;8.10;;;3.20;;
69244;SDS011;56357;52.304;4.870;2023-06-10T02:17:18;8.07;;;2.90;;
69244;SDS011;56357;52.304;4.870;2023-06-10T02:19:44;6.85;;;3.08;;
69244;SDS011;56357;52.304;4.870;2023-06-10T02:22:17;7.93;;;3.00;;
69244;SDS011;56357;52.304;4.870;2023-06-10T02:24:47;9.43;;;3.22;;
69244;SDS011;56357;52.304;4.870;2023-06-10T02:27:15;7.57;;;2.73;;
69244;SDS011;56357;52.304;4.870;2023-06-10T02:29:42;7.07;;;3.13;;
69244;SDS011;56357;52.304;4.870;2023-06-10T02:32:08;7.75;;;3.40;;
69244;SDS011;56357;52.304;4.870;2023-06-10T02:34:35;7.80;;;3.47;;
69244;SDS011;56357;52.304;4.870;2023-06-10T02:37:02;6.78;;;3.08;;
69244;SDS011;56357;52.304;4.870;2023-06-10T02:39:29;8.03;;;3.30;;
69244;SDS011;56357;52.304;4.870;2023-06-10T02:41:55;7.15;;;3.72;;
69244;SDS011;56357;52.304;4.870;2023-06-10T02:44:21;7.53;;;3.25;;
69244;SDS011;56357;52.304;4.870;2023-06-10T02:46:48;8.50;;;3.25;;
69244;SDS011;56357;52.304;4.870;2023-06-10T02:49:14;8.20;;;3.10;;
69244;SDS011;56357;52.304;4.870;2023-06-10T02:51:41;6.83;;;2.77;;
69244;SDS011;56357;52.304;4.870;2023-06-10T02:54:07;7.10;;;2.97;;
69244;SDS011;56357;52.304;4.870;2023-06-10T02:56:34;7.45;;;3.17;;
69244;SDS011;56357;52.304;4.870;2023-06-10T02:59:01;8.10;;;2.97;;
69244;SDS011;56357;52.304;4.870;2023-06-10T03:01:28;6.40;;;2.95;;
69244;SDS011;56357;52.304;4.870;2023-06-10T03:03:56;8.93;;;3.47;;
69244;SDS011;56357;52.304;4.870;2023-06-10T03:06:23;8.23;;;3.47;;
69244;SDS011;56357;52.304;4.870;2023-06-10T03:08:51;7.10;;;3.20;;
69244;SDS011;56357;52.304;4.870;2023-06-10T03:11:17;7.25;;;2.97;;
69244;SDS011;56357;52.304;4.870;2023-06-10T03:13:44;6.38;;;2.88;;
69244;SDS011;56357;52.304;4.870;2023-06-10T03:16:11;7.20;;;3.00;;
69244;SDS011;56357;52.304;4.870;2023-06-10T03:18:38;7.97;;;2.80;;
69244;SDS011;56357;52.304;4.870;2023-06-10T03:21:04;7.38;;;3.00;;
69244;SDS011;56357;52.304;4.870;2023-06-10T03:23:31;9.02;;;3.40;;
69244;SDS011;56357;52.304;4.870;2023-06-10T03:25:57;7.18;;;3.67;;
69244;SDS011;56357;52.304;4.870;2023-06-10T03:28:25;6.97;;;3.47;;
69244;SDS011;56357;52.304;4.870;2023-06-10T03:30:51;6.82;;;3.10;;
69244;SDS011;56357;52.304;4.870;2023-06-10T03:33:18;8.02;;;3.08;;
69244;SDS011;56357;52.304;4.870;2023-06-10T03:35:45;9.65;;;3.50;;
69244;SDS011;56357;52.304;4.870;2023-06-10T03:38:11;8.02;;;3.50;;
69244;SDS011;56357;52.304;4.870;2023-06-10T03:40:37;8.67;;;3.07;;
69244;SDS011;56357;52.304;4.870;2023-06-10T03:43:04;6.88;;;3.17;;
69244;SDS011;56357;52.304;4.870;2023-06-10T03:45:30;8.00;;;3.30;;
69244;SDS011;56357;52.304;4.870;2023-06-10T03:47:57;6.82;;;2.80;;
69244;SDS011;56357;52.304;4.870;2023-06-10T03:50:23;7.90;;;3.10;;
69244;SDS011;56357;52.304;4.870;2023-06-10T03:52:51;6.80;;;3.33;;
69244;SDS011;56357;52.304;4.870;2023-06-10T03:55:17;6.97;;;3.00;;
69244;SDS011;56357;52.304;4.870;2023-06-10T03:57:47;8.15;;;3.58;;
69244;SDS011;56357;52.304;4.870;2023-06-10T04:00:14;7.22;;;2.70;;
69244;SDS011;56357;52.304;4.870;2023-06-10T04:02:42;9.40;;;3.40;;
69244;SDS011;56357;52.304;4.870;2023-06-10T04:05:19;7.00;;;2.97;;
69244;SDS011;56357;52.304;4.870;2023-06-10T04:07:47;6.70;;;3.20;;
69244;SDS011;56357;52.304;4.870;2023-06-10T04:10:14;7.07;;;3.10;;
69244;SDS011;56357;52.304;4.870;2023-06-10T04:12:41;7.28;;;3.10;;
69244;SDS011;56357;52.304;4.870;2023-06-10T04:15:08;8.93;;;3.47;;
69244;SDS011;56357;52.304;4.870;2023-06-10T04:17:35;7.37;;;3.13;;
69244;SDS011;56357;52.304;4.870;2023-06-10T04:20:01;9.18;;;3.72;;
69244;SDS011;56357;52.304;4.870;2023-06-10T04:22:29;7.15;;;3.40;;
69244;SDS011;56357;52.304;4.870;2023-06-10T04:24:55;7.97;;;3.22;;
69244;SDS011;56357;52.304;4.870;2023-06-10T04:27:22;7.32;;;3.60;;
69244;SDS011;56357;52.304;4.870;2023-06-10T04:29:48;7.73;;;3.87;;
69244;SDS011;56357;52.304;4.870;2023-06-10T04:32:14;8.20;;;3.28;;
69244;SDS011;56357;52.304;4.870;2023-06-10T04:34:41;8.27;;;3.00;;
69244;SDS011;56357;52.304;4.870;2023-06-10T04:37:07;8.73;;;3.33;;
69244;SDS011;56357;52.304;4.870;2023-06-10T04:39:34;9.40;;;3.63;;
69244;SDS011;56357;52.304;4.870;2023-06-10T04:42:00;7.80;;;3.50;;
69244;SDS011;56357;52.304;4.870;2023-06-10T04:44:26;7.90;;;3.63;;
69244;SDS011;56357;52.304;4.870;2023-06-10T04:46:53;7.68;;;3.53;;
69244;SDS011;56357;52.304;4.870;2023-06-10T04:49:19;8.27;;;3.63;;
69244;SDS011;56357;52.304;4.870;2023-06-10T04:51:46;7.85;;;3.78;;
69244;SDS011;56357;52.304;4.870;2023-06-10T04:54:12;6.93;;;3.43;;
69244;SDS011;56357;52.304;4.870;2023-06-10T04:56:39;10.10;;;3.22;;
69244;SDS011;56357;52.304;4.870;2023-06-10T04:59:05;7.35;;;3.33;;
69244;SDS011;56357;52.304;4.870;2023-06-10T05:01:32;8.30;;;3.15;;
69244;SDS011;56357;52.304;4.870;2023-06-10T05:03:58;7.95;;;3.40;;
69244;SDS011;56357;52.304;4.870;2023-06-10T05:06:24;7.50;;;3.10;;
69244;SDS011;56357;52.304;4.870;2023-06-10T05:08:51;8.45;;;3.97;;
69244;SDS011;56357;52.304;4.870;2023-06-10T05:11:17;6.85;;;3.15;;
69244;SDS011;56357;52.304;4.870;2023-06-10T05:13:44;8.98;;;3.83;;
69244;SDS011;56357;52.304;4.870;2023-06-10T05:16:10;8.40;;;3.25;;
69244;SDS011;56357;52.304;4.870;2023-06-10T05:18:37;7.50;;;3.70;;
69244;SDS011;56357;52.304;4.870;2023-06-10T05:21:03;7.78;;;3.45;;
69244;SDS011;56357;52.304;4.870;2023-06-10T05:23:30;7.60;;;3.63;;
69244;SDS011;56357;52.304;4.870;2023-06-10T05:25:56;7.40;;;3.65;;
69244;SDS011;56357;52.304;4.870;2023-06-10T05:28:23;7.45;;;3.75;;
69244;SDS011;56357;52.304;4.870;2023-06-10T05:30:50;7.30;;;3.47;;
69244;SDS011;56357;52.304;4.870;2023-06-10T05:33:16;8.80;;;3.53;;
69244;SDS011;56357;52.304;4.870;2023-06-10T05:35:43;6.75;;;3.20;;
69244;SDS011;56357;52.304;4.870;2023-06-10T05:38:09;7.63;;;3.50;;
69244;SDS011;56357;52.304;4.870;2023-06-10T05:40:36;6.55;;;3.20;;
69244;SDS011;56357;52.304;4.870;2023-06-10T05:43:02;9.53;;;3.60;;
69244;SDS011;56357;52.304;4.870;2023-06-10T05:45:28;7.50;;;3.30;;
69244;SDS011;56357;52.304;4.870;2023-06-10T05:47:55;7.70;;;3.50;;
69244;SDS011;56357;52.304;4.870;2023-06-10T05:50:21;8.15;;;3.75;;
69244;SDS011;56357;52.304;4.870;2023-06-10T05:52:48;8.57;;;3.83;;
69244;SDS011;56357;52.304;4.870;2023-06-10T05:55:14;6.37;;;2.87;;
69244;SDS011;56357;52.304;4.870;2023-06-10T05:57:41;8.50;;;3.50;;
69244;SDS011;56357;52.304;4.870;2023-06-10T06:00:08;9.77;;;3.75;;
69244;SDS011;56357;52.304;4.870;2023-06-10T06:02:34;8.07;;;3.60;;
69244;SDS011;56357;52.304;4.870;2023-06-10T06:05:01;8.48;;;3.72;;
69244;SDS011;56357;52.304;4.870;2023-06-10T06:07:27;9.63;;;3.53;;
69244;SDS011;56357;52.304;4.870;2023-06-10T06:09:54;8.18;;;3.72;;
69244;SDS011;56357;52.304;4.870;2023-06-10T06:12:20;7.97;;;3.42;;
69244;SDS011;56357;52.304;4.870;2023-06-10T06:14:47;9.45;;;3.63;;
69244;SDS011;56357;52.304;4.870;2023-06-10T06:17:14;8.70;;;3.67;;
69244;SDS011;56357;52.304;4.870;2023-06-10T06:19:40;8.67;;;3.80;;
69244;SDS011;56357;52.304;4.870;2023-06-10T06:22:08;9.55;;;3.47;;
69244;SDS011;56357;52.304;4.870;2023-06-10T06:24:35;9.13;;;3.72;;
69244;SDS011;56357;52.304;4.870;2023-06-10T06:27:01;11.13;;;3.95;;
69244;SDS011;56357;52.304;4.870;2023-06-10T06:29:28;7.82;;;3.97;;
69244;SDS011;56357;52.304;4.870;2023-06-10T06:31:55;10.20;;;3.90;;
69244;SDS011;56357;52.304;4.870;2023-06-10T06:34:21;9.45;;;3.80;;
69244;SDS011;56357;52.304;4.870;2023-06-10T06:36:48;10.43;;;3.38;;
69244;SDS011;56357;52.304;4.870;2023-06-10T06:39:14;11.40;;;3.83;;
69244;SDS011;56357;52.304;4.870;2023-06-10T06:41:41;11.35;;;3.88;;
69244;SDS011;56357;52.304;4.870;2023-06-10T06:44:08;11.80;;;3.90;;
69244;SDS011;56357;52.304;4.870;2023-06-10T06:46:34;14.32;;;4.38;;
69244;SDS011;56357;52.304;4.870;2023-06-10T06:49:01;13.23;;;3.50;;
69244;SDS011;56357;52.304;4.870;2023-06-10T06:51:28;13.88;;;4.20;;
69244;SDS011;56357;52.304;4.870;2023-06-10T06:53:54;11.77;;;3.70;;
69244;SDS011;56357;52.304;4.870;2023-06-10T06:56:23;11.63;;;3.90;;
69244;SDS011;56357;52.304;4.870;2023-06-10T06:58:51;8.75;;;3.55;;
69244;SDS011;56357;52.304;4.870;2023-06-10T07:01:17;11.25;;;4.00;;
69244;SDS011;56357;52.304;4.870;2023-06-10T07:03:44;9.45;;;3.53;;
69244;SDS011;56357;52.304;4.870;2023-06-10T07:06:12;13.02;;;4.40;;
69244;SDS011;56357;52.304;4.870;2023-06-10T07:08:38;10.90;;;4.07;;
69244;SDS011;56357;52.304;4.870;2023-06-10T07:11:05;11.38;;;4.30;;
69244;SDS011;56357;52.304;4.870;2023-06-10T07:13:31;10.60;;;4.07;;
69244;SDS011;56357;52.304;4.870;2023-06-10T07:15:58;12.93;;;3.80;;
69244;SDS011;56357;52.304;4.870;2023-06-10T07:18:25;12.90;;;4.22;;
69244;SDS011;56357;52.304;4.870;2023-06-10T07:20:51;11.60;;;4.57;;
69244;SDS011;56357;52.304;4.870;2023-06-10T07:23:18;11.05;;;4.75;;
69244;SDS011;56357;52.304;4.870;2023-06-10T07:25:44;11.20;;;4.45;;
69244;SDS011;56357;52.304;4.870;2023-06-10T07:28:11;10.95;;;3.60;;
69244;SDS011;56357;52.304;4.870;2023-06-10T07:30:37;13.13;;;3.47;;
69244;SDS011;56357;52.304;4.870;2023-06-10T07:33:03;10.13;;;3.67;;
69244;SDS011;56357;52.304;4.870;2023-06-10T07:35:32;12.10;;;3.40;;
69244;SDS011;56357;52.304;4.870;2023-06-10T07:37:59;10.82;;;4.05;;
69244;SDS011;56357;52.304;4.870;2023-06-10T07:40:25;11.63;;;4.35;;
69244;SDS011;56357;52.304;4.870;2023-06-10T07:42:51;12.98;;;4.68;;
69244;SDS011;56357;52.304;4.870;2023-06-10T07:45:19;12.67;;;4.23;;
69244;SDS011;56357;52.304;4.870;2023-06-10T07:47:45;11.65;;;4.15;;
69244;SDS011;56357;52.304;4.870;2023-06-10T07:50:11;13.77;;;4.32;;
69244;SDS011;56357;52.304;4.870;2023-06-10T07:52:38;14.30;;;4.93;;
69244;SDS011;56357;52.304;4.870;2023-06-10T07:55:04;16.08;;;4.50;;
69244;SDS011;56357;52.304;4.870;2023-06-10T07:57:31;12.90;;;3.90;;
69244;SDS011;56357;52.304;4.870;2023-06-10T08:00:01;12.15;;;4.03;;
69244;SDS011;56357;52.304;4.870;2023-06-10T08:02:29;12.45;;;5.07;;
69244;SDS011;56357;52.304;4.870;2023-06-10T08:04:56;11.70;;;4.35;;
69244;SDS011;56357;52.304;4.870;2023-06-10T08:07:22;10.20;;;3.97;;
69244;SDS011;56357;52.304;4.870;2023-06-10T08:09:48;12.60;;;4.47;;
69244;SDS011;56357;52.304;4.870;2023-06-10T08:12:15;12.80;;;4.38;;
69244;SDS011;56357;52.304;4.870;2023-06-10T08:14:41;8.88;;;4.43;;
69244;SDS011;56357;52.304;4.870;2023-06-10T08:17:08;10.85;;;4.47;;
69244;SDS011;56357;52.304;4.870;2023-06-10T08:19:34;11.23;;;3.85;;
69244;SDS011;56357;52.304;4.870;2023-06-10T08:22:00;11.90;;;4.20;;
69244;SDS011;56357;52.304;4.870;2023-06-10T08:24:27;11.80;;;4.13;;
69244;SDS011;56357;52.304;4.870;2023-06-10T08:26:54;12.18;;;4.70;;
69244;SDS011;56357;52.304;4.870;2023-06-10T08:29:21;12.52;;;4.78;;
69244;SDS011;56357;52.304;4.870;2023-06-10T08:31:47;16.23;;;4.68;;
69244;SDS011;56357;52.304;4.870;2023-06-10T08:34:14;12.10;;;4.43;;
69244;SDS011;56357;52.304;4.870;2023-06-10T08:36:40;14.00;;;4.32;;
69244;SDS011;56357;52.304;4.870;2023-06-10T08:39:08;15.95;;;4.47;;
69244;SDS011;56357;52.304;4.870;2023-06-10T08:41:35;10.95;;;4.05;;
69244;SDS011;56357;52.304;4.870;2023-06-10T08:44:16;13.88;;;4.93;;
69244;SDS011;56357;52.304;4.870;2023-06-10T08:46:47;13.47;;;4.80;;
69244;SDS011;56357;52.304;4.870;2023-06-10T08:49:17;13.55;;;4.43;;
69244;SDS011;56357;52.304;4.870;2023-06-10T08:51:46;16.35;;;4.63;;
69244;SDS011;56357;52.304;4.870;2023-06-10T08:54:17;14.20;;;4.50;;
69244;SDS011;56357;52.304;4.870;2023-06-10T08:56:50;13.98;;;4.72;;
69244;SDS011;56357;52.304;4.870;2023-06-10T08:59:19;15.30;;;4.30;;
69244;SDS011;56357;52.304;4.870;2023-06-10T09:01:47;10.98;;;4.18;;
69244;SDS011;56357;52.304;4.870;2023-06-10T09:04:14;11.07;;;4.18;;
69244;SDS011;56357;52.304;4.870;2023-06-10T09:06:42;9.95;;;4.32;;
69244;SDS011;56357;52.304;4.870;2023-06-10T09:09:11;13.77;;;4.82;;
69244;SDS011;56357;52.304;4.870;2023-06-10T09:11:38;11.13;;;4.40;;
69244;SDS011;56357;52.304;4.870;2023-06-10T09:14:05;13.63;;;4.63;;
69244;SDS011;56357;52.304;4.870;2023-06-10T09:16:32;15.23;;;4.20;;
69244;SDS011;56357;52.304;4.870;2023-06-10T09:18:58;15.93;;;4.57;;
69244;SDS011;56357;52.304;4.870;2023-06-10T09:21:25;18.73;;;5.07;;
69244;SDS011;56357;52.304;4.870;2023-06-10T09:23:51;15.60;;;5.40;;
69244;SDS011;56357;52.304;4.870;2023-06-10T09:26:18;12.27;;;4.50;;
69244;SDS011;56357;52.304;4.870;2023-06-10T09:28:48;15.43;;;4.65;;
69244;SDS011;56357;52.304;4.870;2023-06-10T09:31:15;16.38;;;4.70;;
69244;SDS011;56357;52.304;4.870;2023-06-10T09:33:44;13.90;;;4.82;;
69244;SDS011;56357;52.304;4.870;2023-06-10T09:36:11;15.03;;;4.93;;
69244;SDS011;56357;52.304;4.870;2023-06-10T09:38:37;16.17;;;4.93;;
69244;SDS011;56357;52.304;4.870;2023-06-10T09:41:04;12.68;;;4.82;;
69244;SDS011;56357;52.304;4.870;2023-06-10T09:43:40;13.93;;;4.68;;
69244;SDS011;56357;52.304;4.870;2023-06-10T09:46:15;15.77;;;4.18;;
69244;SDS011;56357;52.304;4.870;2023-06-10T09:48:43;17.90;;;4.50;;
69244;SDS011;56357;52.304;4.870;2023-06-10T09:51:11;11.02;;;4.65;;
69244;SDS011;56357;52.304;4.870;2023-06-10T09:53:39;14.45;;;5.15;;
69244;SDS011;56357;52.304;4.870;2023-06-10T09:56:05;15.50;;;4.53;;
69244;SDS011;56357;52.304;4.870;2023-06-10T09:58:35;18.42;;;4.97;;
69244;SDS011;56357;52.304;4.870;2023-06-10T10:01:06;13.57;;;4.37;;
69244;SDS011;56357;52.304;4.870;2023-06-10T10:03:44;18.95;;;4.95;;
69244;SDS011;56357;52.304;4.870;2023-06-10T10:06:15;12.40;;;5.10;;
69244;SDS011;56357;52.304;4.870;2023-06-10T10:08:43;13.82;;;4.18;;
69244;SDS011;56357;52.304;4.870;2023-06-10T10:11:11;13.30;;;4.63;;
69244;SDS011;56357;52.304;4.870;2023-06-10T10:13:38;13.43;;;4.53;;
69244;SDS011;56357;52.304;4.870;2023-06-10T10:16:09;17.33;;;4.63;;
69244;SDS011;56357;52.304;4.870;2023-06-10T10:18:41;15.75;;;4.80;;
69244;SDS011;56357;52.304;4.870;2023-06-10T10:21:12;22.65;;;4.93;;
69244;SDS011;56357;52.304;4.870;2023-06-10T10:26:32;13.77;;;4.10;;
69244;SDS011;56357;52.304;4.870;2023-06-10T10:29:10;10.88;;;4.40;;
69244;SDS011;56357;52.304;4.870;2023-06-10T10:31:42;12.93;;;4.32;;
69244;SDS011;56357;52.304;4.870;2023-06-10T10:34:12;12.80;;;4.35;;
69244;SDS011;56357;52.304;4.870;2023-06-10T10:36:42;12.68;;;4.38;;
69244;SDS011;56357;52.304;4.870;2023-06-10T10:39:09;12.37;;;4.23;;
69244;SDS011;56357;52.304;4.870;2023-06-10T10:41:37;15.55;;;4.32;;
69244;SDS011;56357;52.304;4.870;2023-06-10T10:44:05;13.32;;;4.13;;
69244;SDS011;56357;52.304;4.870;2023-06-10T10:46:44;14.88;;;4.38;;
69244;SDS011;56357;52.304;4.870;2023-06-10T10:49:15;14.15;;;4.20;;
69244;SDS011;56357;52.304;4.870;2023-06-10T10:51:59;10.20;;;3.80;;
69244;SDS011;56357;52.304;4.870;2023-06-10T11:02:18;14.13;;;4.57;;
69244;SDS011;56357;52.304;4.870;2023-06-10T11:04:57;12.03;;;4.10;;
69244;SDS011;56357;52.304;4.870;2023-06-10T11:07:24;18.98;;;4.72;;
69244;SDS011;56357;52.304;4.870;2023-06-10T11:10:02;11.35;;;3.97;;
69244;SDS011;56357;52.304;4.870;2023-06-10T11:15:11;11.75;;;4.32;;
69244;SDS011;56357;52.304;4.870;2023-06-10T11:17:46;12.17;;;4.10;;
69244;SDS011;56357;52.304;4.870;2023-06-10T11:23:38;13.32;;;4.43;;
69244;SDS011;56357;52.304;4.870;2023-06-10T11:31:18;8.50;;;3.47;;
69244;SDS011;56357;52.304;4.870;2023-06-10T11:33:55;10.55;;;4.05;;
69244;SDS011;56357;52.304;4.870;2023-06-10T11:36:25;10.63;;;3.58;;
69244;SDS011;56357;52.304;4.870;2023-06-10T11:39:00;11.27;;;3.55;;
69244;SDS011;56357;52.304;4.870;2023-06-10T11:41:29;10.43;;;3.72;;
69244;SDS011;56357;52.304;4.870;2023-06-10T11:44:03;10.73;;;3.47;;
69244;SDS011;56357;52.304;4.870;2023-06-10T11:46:33;12.85;;;3.90;;
69244;SDS011;56357;52.304;4.870;2023-06-10T11:49:00;9.98;;;3.78;;
69244;SDS011;56357;52.304;4.870;2023-06-10T11:51:29;9.50;;;3.88;;
69244;SDS011;56357;52.304;4.870;2023-06-10T11:53:57;11.05;;;4.30;;
69244;SDS011;56357;52.304;4.870;2023-06-10T11:56:28;9.77;;;3.80;;
69244;SDS011;56357;52.304;4.870;2023-06-10T11:58:59;9.70;;;3.67;;
69244;SDS011;56357;52.304;4.870;2023-06-10T12:01:29;12.27;;;3.90;;
69244;SDS011;56357;52.304;4.870;2023-06-10T12:03:58;12.55;;;4.10;;
69244;SDS011;56357;52.304;4.870;2023-06-10T12:06:41;9.57;;;3.72;;
69244;SDS011;56357;52.304;4.870;2023-06-10T12:09:13;10.23;;;4.10;;
69244;SDS011;56357;52.304;4.870;2023-06-10T12:11:59;9.40;;;3.85;;
69244;SDS011;56357;52.304;4.870;2023-06-10T12:19:56;9.70;;;3.70;;
69244;SDS011;56357;52.304;4.870;2023-06-10T12:22:23;9.90;;;3.80;;
69244;SDS011;56357;52.304;4.870;2023-06-10T12:25:00;8.60;;;3.85;;
69244;SDS011;56357;52.304;4.870;2023-06-10T12:27:29;7.75;;;3.90;;
69244;SDS011;56357;52.304;4.870;2023-06-10T12:29:57;8.93;;;3.60;;
69244;SDS011;56357;52.304;4.870;2023-06-10T12:32:35;9.52;;;3.47;;
69244;SDS011;56357;52.304;4.870;2023-06-10T12:35:06;8.07;;;3.53;;
69244;SDS011;56357;52.304;4.870;2023-06-10T12:37:33;10.48;;;4.03;;
69244;SDS011;56357;52.304;4.870;2023-06-10T12:40:01;10.13;;;3.92;;
69244;SDS011;56357;52.304;4.870;2023-06-10T12:42:29;12.88;;;4.43;;
69244;SDS011;56357;52.304;4.870;2023-06-10T12:44:58;8.60;;;3.63;;
69244;SDS011;56357;52.304;4.870;2023-06-10T12:47:29;9.20;;;3.70;;
69244;SDS011;56357;52.304;4.870;2023-06-10T12:49:58;9.85;;;3.92;;
69244;SDS011;56357;52.304;4.870;2023-06-10T12:52:25;8.18;;;3.70;;
69244;SDS011;56357;52.304;4.870;2023-06-10T12:54:52;9.70;;;3.78;;
69244;SDS011;56357;52.304;4.870;2023-06-10T12:57:19;6.70;;;3.13;;
69244;SDS011;56357;52.304;4.870;2023-06-10T12:59:46;9.90;;;3.70;;
69244;SDS011;56357;52.304;4.870;2023-06-10T13:02:17;10.73;;;3.33;;
69244;SDS011;56357;52.304;4.870;2023-06-10T13:04:44;10.05;;;3.65;;
69244;SDS011;56357;52.304;4.870;2023-06-10T13:07:11;9.38;;;3.70;;
69244;SDS011;56357;52.304;4.870;2023-06-10T13:09:38;8.55;;;4.05;;
69244;SDS011;56357;52.304;4.870;2023-06-10T13:12:04;6.87;;;3.30;;
69244;SDS011;56357;52.304;4.870;2023-06-10T13:14:31;8.38;;;3.60;;
69244;SDS011;56357;52.304;4.870;2023-06-10T13:16:57;7.85;;;3.42;;
69244;SDS011;56357;52.304;4.870;2023-06-10T13:19:24;7.80;;;3.75;;
69244;SDS011;56357;52.304;4.870;2023-06-10T13:21:51;9.25;;;3.30;;
69244;SDS011;56357;52.304;4.870;2023-06-10T13:24:18;9.40;;;3.40;;
69244;SDS011;56357;52.304;4.870;2023-06-10T13:26:45;12.05;;;3.35;;
69244;SDS011;56357;52.304;4.870;2023-06-10T13:29:11;9.63;;;3.60;;
69244;SDS011;56357;52.304;4.870;2023-06-10T13:31:39;7.30;;;3.53;;
69244;SDS011;56357;52.304;4.870;2023-06-10T13:34:07;9.90;;;3.85;;
69244;SDS011;56357;52.304;4.870;2023-06-10T13:36:33;8.60;;;3.33;;
69244;SDS011;56357;52.304;4.870;2023-06-10T13:39:00;8.00;;;3.53;;
69244;SDS011;56357;52.304;4.870;2023-06-10T13:41:27;8.80;;;3.67;;
69244;SDS011;56357;52.304;4.870;2023-06-10T13:43:54;11.60;;;3.92;;
69244;SDS011;56357;52.304;4.870;2023-06-10T13:46:21;12.25;;;4.68;;
69244;SDS011;56357;52.304;4.870;2023-06-10T13:48:48;8.23;;;3.83;;
69244;SDS011;56357;52.304;4.870;2023-06-10T13:51:14;10.90;;;3.92;;
69244;SDS011;56357;52.304;4.870;2023-06-10T13:53:41;7.75;;;4.05;;
69244;SDS011;56357;52.304;4.870;2023-06-10T13:56:07;9.43;;;4.15;;
69244;SDS011;56357;52.304;4.870;2023-06-10T13:58:34;9.50;;;4.15;;
69244;SDS011;56357;52.304;4.870;2023-06-10T14:01:04;12.03;;;4.23;;
69244;SDS011;56357;52.304;4.870;2023-06-10T14:03:30;10.23;;;4.25;;
69244;SDS011;56357;52.304;4.870;2023-06-10T14:05:57;10.27;;;4.40;;
69244;SDS011;56357;52.304;4.870;2023-06-10T14:08:23;11.25;;;4.50;;
69244;SDS011;56357;52.304;4.870;2023-06-10T14:10:50;9.75;;;4.40;;
69244;SDS011;56357;52.304;4.870;2023-06-10T14:13:17;11.47;;;3.90;;
69244;SDS011;56357;52.304;4.870;2023-06-10T14:15:43;8.02;;;4.28;;
69244;SDS011;56357;52.304;4.870;2023-06-10T14:18:11;12.60;;;4.30;;
69244;SDS011;56357;52.304;4.870;2023-06-10T14:20:38;7.82;;;4.68;;
69244;SDS011;56357;52.304;4.870;2023-06-10T14:23:04;7.13;;;4.25;;
69244;SDS011;56357;52.304;4.870;2023-06-10T14:25:31;10.80;;;4.47;;
69244;SDS011;56357;52.304;4.870;2023-06-10T14:27:57;6.97;;;4.20;;
69244;SDS011;56357;52.304;4.870;2023-06-10T14:30:24;9.48;;;4.00;;
69244;SDS011;56357;52.304;4.870;2023-06-10T14:32:50;10.10;;;4.10;;
69244;SDS011;56357;52.304;4.870;2023-06-10T14:35:17;9.25;;;3.90;;
69244;SDS011;56357;52.304;4.870;2023-06-10T14:37:43;11.57;;;4.37;;
69244;SDS011;56357;52.304;4.870;2023-06-10T14:40:10;15.50;;;4.60;;
69244;SDS011;56357;52.304;4.870;2023-06-10T14:42:36;12.77;;;4.43;;
69244;SDS011;56357;52.304;4.870;2023-06-10T14:45:03;10.27;;;3.95;;
69244;SDS011;56357;52.304;4.870;2023-06-10T14:47:31;12.38;;;3.90;;
69244;SDS011;56357;52.304;4.870;2023-06-10T14:49:58;14.80;;;4.00;;
69244;SDS011;56357;52.304;4.870;2023-06-10T14:52:24;16.25;;;3.88;;
69244;SDS011;56357;52.304;4.870;2023-06-10T14:54:51;19.35;;;4.65;;
69244;SDS011;56357;52.304;4.870;2023-06-10T14:57:17;18.95;;;3.83;;
69244;SDS011;56357;52.304;4.870;2023-06-10T14:59:44;19.33;;;4.40;;
69244;SDS011;56357;52.304;4.870;2023-06-10T15:02:10;10.33;;;3.83;;
69244;SDS011;56357;52.304;4.870;2023-06-10T15:04:37;17.25;;;3.95;;
69244;SDS011;56357;52.304;4.870;2023-06-10T15:07:03;17.15;;;4.30;;
69244;SDS011;56357;52.304;4.870;2023-06-10T15:09:30;14.00;;;3.95;;
69244;SDS011;56357;52.304;4.870;2023-06-10T15:11:57;12.00;;;4.13;;
69244;SDS011;56357;52.304;4.870;2023-06-10T15:14:24;10.87;;;4.00;;